createdAt,value
2023-01-08T00:01:59.737Z,101931.22
2023-01-08T00:06:56.521Z,101926.84
2023-01-08T00:11:53.352Z,101879.34
2023-01-08T00:16:51.373Z,101923.34
2023-01-08T00:21:48.163Z,101924.19
2023-01-08T00:26:44.903Z,101932.91
2023-01-08T00:31:41.743Z,101875.03
2023-01-08T00:36:39.236Z,101838.75
2023-01-08T00:41:36.076Z,101865.53
2023-01-08T00:46:32.884Z,101859.50
2023-01-08T00:51:29.754Z,101917.50
2023-01-08T00:56:27.167Z,101919.28
2023-01-08T01:01:24.156Z,101853.66
2023-01-08T01:06:21.541Z,101832.03
2023-01-08T01:11:21.019Z,101876.09
2023-01-08T01:16:18.847Z,101889.97
2023-01-08T01:21:22.385Z,101883.97
2023-01-08T01:26:20.941Z,101906.41
2023-01-08T01:31:19.457Z,101910.03
2023-01-08T01:36:17.970Z,101861.75
2023-01-08T01:41:23.247Z,101832.38
2023-01-08T01:46:28.059Z,101854.03
2023-01-08T01:51:31.225Z,101910.31
2023-01-08T01:56:28.987Z,101856.63
2023-01-08T02:01:27.292Z,101846.25
2023-01-08T02:06:35.083Z,101813.34
2023-01-08T02:11:42.782Z,101890.22
2023-01-08T02:16:46.369Z,101836.56
2023-01-08T02:21:53.509Z,101754.50
2023-01-08T02:26:55.388Z,101852.22
2023-01-08T02:31:52.494Z,101852.22
2023-01-08T02:36:51.286Z,101837.59
2023-01-08T02:41:57.152Z,101886.06
2023-01-08T02:46:57.224Z,101841.06
2023-01-08T02:51:56.998Z,101834.16
2023-01-08T02:56:59.202Z,101895.59
2023-01-08T03:01:56.881Z,101862.69
2023-01-08T03:06:53.916Z,101896.47
2023-01-08T03:11:58.092Z,101854.06
2023-01-08T03:17:00.447Z,101902.50
2023-01-08T03:21:58.249Z,101897.28
2023-01-08T03:26:59.347Z,101909.44
2023-01-08T03:32:02.911Z,101906.84
2023-01-08T03:37:04.401Z,101909.44
2023-01-08T03:42:07.657Z,101892.09
2023-01-08T03:47:06.661Z,101846.25
2023-01-08T03:52:03.643Z,101894.72
2023-01-08T03:57:01.218Z,101886.94
2023-01-08T04:01:58.137Z,101861.84
2023-01-08T04:06:55.018Z,101889.53
2023-01-08T04:11:51.997Z,101896.38
2023-01-08T04:16:49.715Z,101837.47
2023-01-08T04:21:46.640Z,101894.56
2023-01-08T04:26:43.518Z,101846.19
2023-01-08T04:31:40.509Z,101881.72
2023-01-08T04:36:38.139Z,101880.00
2023-01-08T04:41:34.971Z,101864.41
2023-01-08T04:46:31.811Z,101870.47
2023-01-08T04:51:28.673Z,101854.00
2023-01-08T04:56:26.315Z,101835.84
2023-01-08T05:01:25.421Z,101877.34
2023-01-08T05:06:22.397Z,101836.72
2023-01-08T05:11:19.366Z,101860.97
2023-01-08T05:16:17.391Z,101897.28
2023-01-08T05:21:14.765Z,101829.72
2023-01-08T05:26:11.662Z,101891.09
2023-01-08T05:31:08.560Z,101910.13
2023-01-08T05:36:07.713Z,101868.56
2023-01-08T05:41:05.487Z,101911.00
2023-01-08T05:46:03.577Z,101920.50
2023-01-08T05:51:00.660Z,101907.53
2023-01-08T05:56:02.370Z,101821.88
2023-01-08T06:01:04.523Z,101904.97
2023-01-08T06:06:03.260Z,101900.56
2023-01-08T06:11:01.296Z,101923.88
2023-01-08T06:15:58.835Z,101932.41
2023-01-08T06:20:55.955Z,101935.00
2023-01-08T06:25:53.722Z,101916.81
2023-01-08T06:30:52.029Z,101926.28
2023-01-08T06:35:49.185Z,101940.22
2023-01-08T06:40:46.223Z,101904.94
2023-01-08T06:45:43.184Z,101941.31
2023-01-08T06:50:40.847Z,101937.06
2023-01-08T06:55:40.258Z,101952.69
2023-01-08T07:00:38.343Z,101954.41
2023-01-08T07:05:36.044Z,101946.63
2023-01-08T07:10:35.592Z,101926.72
2023-01-08T07:15:32.386Z,101962.25
2023-01-08T07:20:30.204Z,101962.22
2023-01-08T07:25:27.060Z,101944.94
2023-01-08T07:30:30.036Z,101889.53
2023-01-08T07:35:27.907Z,101815.13
2023-01-08T07:40:24.797Z,101828.94
2023-01-08T07:45:21.848Z,101957.06
2023-01-08T07:50:20.122Z,101939.72
2023-01-08T07:55:16.956Z,101962.22
2023-01-08T08:00:14.714Z,101947.50
2023-01-08T08:05:11.560Z,101963.97
2023-01-08T08:10:11.327Z,101965.69
2023-01-08T08:15:09.557Z,101937.97
2023-01-08T08:20:07.601Z,101933.69
2023-01-08T08:25:05.212Z,101903.38
2023-01-08T08:30:03.604Z,101963.13
2023-01-08T08:35:00.643Z,101963.09
2023-01-08T08:39:57.452Z,101962.22
2023-01-08T08:44:54.474Z,101962.19
2023-01-08T08:49:52.063Z,101954.31
2023-01-08T08:54:48.871Z,101874.72
2023-01-08T08:59:45.799Z,101917.03
2023-01-08T09:04:42.919Z,101943.75
2023-01-08T09:09:41.437Z,101876.19
2023-01-08T09:14:38.419Z,101888.84
2023-01-08T09:19:35.359Z,101904.25
2023-01-08T09:24:32.612Z,101847.97
2023-01-08T09:29:30.178Z,101839.16
2023-01-08T09:34:27.115Z,101896.72
2023-01-08T09:39:24.090Z,101898.44
2023-01-08T09:44:26.075Z,101885.34
2023-01-08T09:49:28.961Z,101891.34
2023-01-08T09:54:27.086Z,101854.94
2023-01-08T09:59:24.142Z,101854.84
2023-01-08T10:04:25.671Z,101850.34
2023-01-08T10:09:26.822Z,101819.09
2023-01-08T10:14:26.053Z,101859.53
2023-01-08T10:19:28.933Z,101857.59
2023-01-08T10:24:33.930Z,101802.13
2023-01-08T10:29:33.046Z,101833.84
2023-01-08T10:34:52.065Z,101745.56
2023-01-08T10:39:53.281Z,101816.25
2023-01-08T10:45:01.935Z,101803.97
2023-01-08T10:50:01.204Z,101821.03
2023-01-08T10:54:58.330Z,101799.25
2023-01-08T10:59:55.925Z,101806.66
2023-01-08T11:04:53.017Z,101783.97
2023-01-08T11:09:53.226Z,101745.81
2023-01-08T11:14:51.730Z,101777.41
2023-01-08T11:19:48.585Z,101793.97
2023-01-08T11:24:46.408Z,101730.34
2023-01-08T11:29:47.253Z,101787.41
2023-01-08T11:34:51.212Z,101771.63
2023-01-08T11:39:48.395Z,101782.00
2023-01-08T11:44:57.970Z,101785.88
2023-01-08T11:50:09.821Z,101747.59
2023-01-08T11:55:19.895Z,101748.25
2023-01-08T12:00:34.569Z,101746.53
2023-01-08T12:05:40.342Z,101773.47
2023-01-08T12:10:55.372Z,101766.28
2023-01-08T12:16:07.109Z,101750.69
2023-01-08T12:21:13.429Z,101744.50
2023-01-08T12:26:19.637Z,101729.16
2023-01-08T12:31:44.309Z,101761.13
2023-01-08T12:36:48.755Z,101711.78
2023-01-08T12:41:48.141Z,101733.56
2023-01-08T12:46:45.988Z,101722.34
2023-01-08T12:51:58.729Z,101720.63
2023-01-08T12:57:06.573Z,101741.41
2023-01-08T13:02:21.358Z,101701.91
2023-01-08T13:07:21.412Z,101715.00
2023-01-08T13:12:34.142Z,101678.16
2023-01-08T13:17:32.315Z,101704.78
2023-01-08T13:22:31.758Z,101693.81
2023-01-08T13:27:32.127Z,101713.81
2023-01-08T13:32:41.906Z,101693.38
2023-01-08T13:37:38.853Z,101745.78
2023-01-08T13:42:41.807Z,101746.84
2023-01-08T13:47:46.080Z,101726.44
2023-01-08T13:52:45.866Z,101745.28
2023-01-08T13:57:46.886Z,101741.06
2023-01-08T14:02:50.523Z,101704.75
2023-01-08T14:07:48.532Z,101693.63
2023-01-08T14:12:47.118Z,101711.69
2023-01-08T14:17:45.747Z,101734.19
2023-01-08T14:22:43.621Z,101700.72
2023-01-08T14:27:41.451Z,101702.38
2023-01-08T14:32:43.598Z,101711.72
2023-01-08T14:37:42.088Z,101701.72
2023-01-08T14:42:42.052Z,101717.94
2023-01-08T14:47:45.273Z,101725.19
2023-01-08T14:52:44.436Z,101722.72
2023-01-08T14:57:46.704Z,101645.72
2023-01-08T15:02:47.419Z,101689.00
2023-01-08T15:07:59.880Z,101694.47
2023-01-08T15:13:00.291Z,101721.38
2023-01-08T15:18:01.980Z,101730.31
2023-01-08T15:23:04.854Z,101695.25
2023-01-08T15:28:05.440Z,101718.81
2023-01-08T15:33:08.542Z,101623.53
2023-01-08T15:38:20.305Z,101655.66
2023-01-08T15:43:18.827Z,101656.03
2023-01-08T15:48:16.261Z,101716.47
2023-01-08T15:53:17.859Z,101703.06
2023-01-08T15:58:16.078Z,101647.34
2023-01-08T16:03:14.408Z,101721.53
2023-01-08T16:08:11.776Z,101705.47
2023-01-08T16:13:11.994Z,101692.84
2023-01-08T16:18:09.184Z,101724.84
2023-01-08T16:23:06.506Z,101705.38
2023-01-08T16:28:04.406Z,101661.69
2023-01-08T16:33:02.811Z,101679.22
2023-01-08T16:38:00.189Z,101736.31
2023-01-08T16:43:00.664Z,101697.66
2023-01-08T16:47:58.133Z,101732.38
2023-01-08T16:52:55.641Z,101747.16
2023-01-08T16:57:55.360Z,101739.53
2023-01-08T17:02:52.302Z,101706.97
2023-01-08T17:07:51.408Z,101741.47
2023-01-08T17:12:50.018Z,101726.19
2023-01-08T17:17:47.231Z,101710.75
2023-01-08T17:22:44.088Z,101650.47
2023-01-08T17:27:41.567Z,101730.81
2023-01-08T17:32:40.117Z,101685.25
2023-01-08T17:37:37.249Z,101669.00
2023-01-08T17:42:34.087Z,101642.34
2023-01-08T17:47:31.262Z,101680.31
2023-01-08T17:52:30.497Z,101720.00
2023-01-08T17:57:30.860Z,101662.41
2023-01-08T18:02:30.887Z,101715.91
2023-01-08T18:07:28.834Z,101700.47
2023-01-08T18:12:25.720Z,101678.03
2023-01-08T18:17:23.047Z,101670.34
2023-01-08T18:22:19.842Z,101713.50
2023-01-08T18:27:17.738Z,101642.84
2023-01-08T18:32:15.440Z,101708.38
2023-01-08T18:37:13.181Z,101697.25
2023-01-08T18:42:29.736Z,101714.59
2023-01-08T18:47:28.247Z,101662.91
2023-01-08T18:52:26.094Z,101716.38
2023-01-08T18:57:23.536Z,101722.41
2023-01-08T19:02:24.174Z,101719.03
2023-01-08T19:07:21.954Z,101706.22
2023-01-08T19:12:19.697Z,101715.84
2023-01-08T19:17:16.621Z,101726.25
2023-01-08T19:22:14.063Z,101723.69
2023-01-08T19:27:11.860Z,101723.69
2023-01-08T19:32:09.283Z,101726.28
2023-01-08T19:37:09.003Z,101729.75
2023-01-08T19:42:24.257Z,101735.00
2023-01-08T19:47:23.016Z,101699.53
2023-01-08T19:52:20.144Z,101728.16
2023-01-08T19:57:21.833Z,101682.47
2023-01-08T20:02:21.145Z,101695.38
2023-01-08T20:07:18.942Z,101704.81
2023-01-08T20:12:16.245Z,101660.84
2023-01-08T20:17:14.090Z,101712.63
2023-01-08T20:22:11.021Z,101657.41
2023-01-08T20:27:10.165Z,101701.38
2023-01-08T20:32:07.556Z,101605.75
2023-01-08T20:37:05.845Z,101690.31
2023-01-08T20:42:04.556Z,101644.69
2023-01-08T20:47:02.636Z,101612.81
2023-01-08T20:52:00.535Z,101717.22
2023-01-08T20:56:58.169Z,101648.16
2023-01-08T21:01:56.413Z,101658.47
2023-01-08T21:06:54.162Z,101711.06
2023-01-08T21:11:53.469Z,101720.69
2023-01-08T21:16:50.292Z,101716.47
2023-01-08T21:21:47.197Z,101709.59
2023-01-08T21:26:45.884Z,101682.94
2023-01-08T21:31:42.912Z,101633.75
2023-01-08T21:36:39.981Z,101736.44
2023-01-08T21:41:55.214Z,101685.53
2023-01-08T21:46:54.903Z,101699.31
2023-01-08T21:52:09.883Z,101728.69
2023-01-08T21:57:07.453Z,101719.34
2023-01-08T22:02:06.108Z,101740.09
2023-01-08T22:07:03.080Z,101699.59
2023-01-08T22:11:59.972Z,101625.44
2023-01-08T22:16:56.847Z,101672.00
2023-01-08T22:21:54.287Z,101714.34
2023-01-08T22:26:51.158Z,101729.03
2023-01-08T22:31:48.086Z,101729.88
2023-01-08T22:36:49.752Z,101694.47
2023-01-08T22:41:47.267Z,101710.00
2023-01-08T22:46:44.144Z,101718.63
2023-01-08T22:51:41.931Z,101701.31
2023-01-08T22:56:38.991Z,101639.00
2023-01-08T23:01:37.149Z,101710.50
2023-01-08T23:06:34.136Z,101678.47
2023-01-08T23:11:32.976Z,101681.13
2023-01-08T23:16:29.879Z,101675.19
2023-01-08T23:21:27.963Z,101690.75
2023-01-08T23:26:27.277Z,101657.13
2023-01-08T23:31:26.116Z,101689.19
2023-01-08T23:36:23.319Z,101709.91
2023-01-08T23:41:22.811Z,101690.84
2023-01-08T23:46:19.565Z,101702.91
2023-01-08T23:51:16.916Z,101701.94
2023-01-08T23:56:14.008Z,101687.19
